LIBV

Gioia Del Colle Airport

Gioia Del Colle, Italy
TAF LIBV 242000Z 2421/2506 35020KT 7000 SCT010 SCT020 BECMG 2421/2424 36020G35KT 8000 SCT020
Issued Valid From Valid To
Sep-24 @ 20:00 UTC
(3 hours ago)
Sep-24 @ 21:00 UTC
(2 hours ago)
Sep-25 @ 06:00 UTC
(in 7 hours)
Sep-24 @ 21:00 to Sep-25 @ 06:00
TAF LIBV 242000Z 2421/2506 35020KT 7000 SCT010 SCT020
Wind Visibility Clouds
350° at 20 knots 7,001 meters
  • Scattered at 1,000' AGL
  • Scattered at 2,000' AGL
Becoming Sep-24 @ 21:00 to Sep-25 @ 06:00
BECMG 2421/2424 36020G35KT 8000 SCT020
Wind Visibility Clouds
360° at 20 knots
 Gusting to 35 knots
7,998 meters
  • Scattered at 2,000' AGL
TAF LIBV 242000Z 2421/2506 35020KT 7000 SCT010 SCT020 BECMG 2421/2424 36020G35KT 8000 SCT020
Issued Sep-24 @ 20:00 UTC
(3 hours ago)
Valid From Sep-24 @ 21:00 UTC
(2 hours ago)
Valid To Sep-25 @ 06:00 UTC
(in 7 hours)
Sep-24 @ 21:00 - Sep-25 @ 06:00
Wind Visibility
350° at 20 knots 7,001 meters
Clouds
  • Scattered at 1,000' AGL
  • Scattered at 2,000' AGL
Becoming Sep-24 @ 21:00 - Sep-25 @ 06:00
Wind Visibility
360° at 20 knots
 Gusting to 35 knots
7,998 meters
Clouds
  • Scattered at 2,000' AGL